sensor_id;sensor_type;location;lat;lon;timestamp;P1;durP1;ratioP1;P2;durP2;ratioP2
7475;SDS011;3779;49.216;8.650;2023-04-12T02:36:00;0.80;;;0.80;;
7475;SDS011;3779;49.216;8.650;2023-04-12T02:38:48;0.80;;;0.80;;
7475;SDS011;3779;49.216;8.650;2023-04-12T02:41:38;1.85;;;0.82;;
7475;SDS011;3779;49.216;8.650;2023-04-12T02:44:30;0.60;;;0.60;;
7475;SDS011;3779;49.216;8.650;2023-04-12T02:47:28;1.42;;;0.80;;
7475;SDS011;3779;49.216;8.650;2023-04-12T02:50:16;0.80;;;0.80;;
7475;SDS011;3779;49.216;8.650;2023-04-12T02:53:09;1.07;;;0.83;;
7475;SDS011;3779;49.216;8.650;2023-04-12T02:55:56;1.20;;;1.02;;
7475;SDS011;3779;49.216;8.650;2023-04-12T02:58:48;0.70;;;0.70;;
7475;SDS011;3779;49.216;8.650;2023-04-12T03:01:43;0.80;;;0.80;;
7475;SDS011;3779;49.216;8.650;2023-04-12T03:04:57;1.20;;;0.90;;
7475;SDS011;3779;49.216;8.650;2023-04-12T03:07:54;1.53;;;1.10;;
7475;SDS011;3779;49.216;8.650;2023-04-12T03:10:53;1.65;;;1.13;;
7475;SDS011;3779;49.216;8.650;2023-04-12T03:13:39;0.73;;;0.73;;
7475;SDS011;3779;49.216;8.650;2023-04-12T03:16:25;2.67;;;1.48;;
7475;SDS011;3779;49.216;8.650;2023-04-12T03:19:21;0.70;;;0.70;;
7475;SDS011;3779;49.216;8.650;2023-04-12T03:22:12;1.30;;;1.07;;
7475;SDS011;3779;49.216;8.650;2023-04-12T03:25:03;1.00;;;1.00;;
7475;SDS011;3779;49.216;8.650;2023-04-12T03:27:50;1.48;;;1.20;;
7475;SDS011;3779;49.216;8.650;2023-04-12T03:30:40;0.83;;;0.80;;
7475;SDS011;3779;49.216;8.650;2023-04-12T03:33:27;1.25;;;1.00;;
7475;SDS011;3779;49.216;8.650;2023-04-12T03:36:21;1.07;;;1.00;;
7475;SDS011;3779;49.216;8.650;2023-04-12T03:39:12;1.90;;;0.90;;
7475;SDS011;3779;49.216;8.650;2023-04-12T03:42:01;0.73;;;0.73;;
7475;SDS011;3779;49.216;8.650;2023-04-12T03:44:48;0.70;;;0.70;;
7475;SDS011;3779;49.216;8.650;2023-04-12T03:47:35;1.30;;;0.90;;
7475;SDS011;3779;49.216;8.650;2023-04-12T03:50:23;1.43;;;0.80;;
7475;SDS011;3779;49.216;8.650;2023-04-12T03:53:16;1.03;;;0.90;;
7475;SDS011;3779;49.216;8.650;2023-04-12T03:56:04;0.90;;;0.90;;
7475;SDS011;3779;49.216;8.650;2023-04-12T03:58:54;0.50;;;0.50;;
7475;SDS011;3779;49.216;8.650;2023-04-12T04:01:41;0.93;;;0.90;;
7475;SDS011;3779;49.216;8.650;2023-04-12T04:04:27;0.90;;;0.80;;
7475;SDS011;3779;49.216;8.650;2023-04-12T04:07:17;1.30;;;1.00;;
7475;SDS011;3779;49.216;8.650;2023-04-12T04:10:04;0.50;;;0.50;;
7475;SDS011;3779;49.216;8.650;2023-04-12T04:12:54;1.47;;;0.90;;
7475;SDS011;3779;49.216;8.650;2023-04-12T04:15:41;0.87;;;0.80;;
7475;SDS011;3779;49.216;8.650;2023-04-12T04:18:28;0.60;;;0.60;;
7475;SDS011;3779;49.216;8.650;2023-04-12T04:21:16;2.50;;;1.20;;
7475;SDS011;3779;49.216;8.650;2023-04-12T04:24:04;0.70;;;0.70;;
7475;SDS011;3779;49.216;8.650;2023-04-12T04:26:55;2.07;;;1.10;;
7475;SDS011;3779;49.216;8.650;2023-04-12T08:10:36;0.90;;;0.90;;
7475;SDS011;3779;49.216;8.650;2023-04-12T08:20:28;1.40;;;1.30;;
7475;SDS011;3779;49.216;8.650;2023-04-12T08:23:16;2.40;;;1.57;;
7475;SDS011;3779;49.216;8.650;2023-04-12T09:53:32;2.10;;;1.70;;
7475;SDS011;3779;49.216;8.650;2023-04-12T12:50:10;1.07;;;0.93;;
7475;SDS011;3779;49.216;8.650;2023-04-12T12:58:50;1.33;;;0.80;;
7475;SDS011;3779;49.216;8.650;2023-04-12T13:01:36;1.50;;;0.80;;
7475;SDS011;3779;49.216;8.650;2023-04-12T13:04:27;0.70;;;0.70;;
7475;SDS011;3779;49.216;8.650;2023-04-12T13:13:40;1.50;;;0.90;;
7475;SDS011;3779;49.216;8.650;2023-04-12T13:16:28;1.60;;;0.90;;
7475;SDS011;3779;49.216;8.650;2023-04-12T13:19:14;1.33;;;0.90;;
7475;SDS011;3779;49.216;8.650;2023-04-12T13:22:00;0.90;;;0.90;;
7475;SDS011;3779;49.216;8.650;2023-04-12T13:24:46;1.03;;;0.87;;
7475;SDS011;3779;49.216;8.650;2023-04-12T17:01:07;2.13;;;1.07;;
7475;SDS011;3779;49.216;8.650;2023-04-12T17:03:53;2.40;;;1.20;;
7475;SDS011;3779;49.216;8.650;2023-04-12T17:06:46;0.90;;;0.80;;
7475;SDS011;3779;49.216;8.650;2023-04-12T17:09:32;0.80;;;0.80;;
7475;SDS011;3779;49.216;8.650;2023-04-12T17:12:18;1.27;;;0.93;;
7475;SDS011;3779;49.216;8.650;2023-04-12T17:15:04;2.30;;;0.97;;
7475;SDS011;3779;49.216;8.650;2023-04-12T17:18:06;1.50;;;1.00;;
7475;SDS011;3779;49.216;8.650;2023-04-12T17:20:54;0.87;;;0.80;;
7475;SDS011;3779;49.216;8.650;2023-04-12T17:23:40;1.03;;;0.90;;
7475;SDS011;3779;49.216;8.650;2023-04-12T17:29:37;0.80;;;0.80;;
7475;SDS011;3779;49.216;8.650;2023-04-12T17:32:23;0.77;;;0.77;;
7475;SDS011;3779;49.216;8.650;2023-04-12T17:35:09;0.80;;;0.80;;
7475;SDS011;3779;49.216;8.650;2023-04-12T17:37:55;0.80;;;0.80;;
7475;SDS011;3779;49.216;8.650;2023-04-12T17:40:43;1.20;;;0.80;;
7475;SDS011;3779;49.216;8.650;2023-04-12T17:43:29;1.37;;;1.10;;
7475;SDS011;3779;49.216;8.650;2023-04-12T17:46:15;2.50;;;1.27;;
7475;SDS011;3779;49.216;8.650;2023-04-12T17:49:03;1.57;;;1.20;;
7475;SDS011;3779;49.216;8.650;2023-04-12T17:51:53;1.57;;;1.37;;
7475;SDS011;3779;49.216;8.650;2023-04-12T17:54:46;1.57;;;1.10;;
7475;SDS011;3779;49.216;8.650;2023-04-12T17:57:32;2.30;;;1.50;;
7475;SDS011;3779;49.216;8.650;2023-04-12T18:00:28;1.53;;;1.10;;
7475;SDS011;3779;49.216;8.650;2023-04-12T18:03:14;1.23;;;1.13;;
7475;SDS011;3779;49.216;8.650;2023-04-12T18:06:00;1.90;;;1.20;;
7475;SDS011;3779;49.216;8.650;2023-04-12T18:08:48;1.70;;;1.10;;
7475;SDS011;3779;49.216;8.650;2023-04-12T18:11:34;1.20;;;1.10;;
7475;SDS011;3779;49.216;8.650;2023-04-12T18:14:39;1.50;;;1.40;;
7475;SDS011;3779;49.216;8.650;2023-04-12T18:17:32;1.50;;;1.40;;
7475;SDS011;3779;49.216;8.650;2023-04-12T18:20:49;1.20;;;1.10;;
7475;SDS011;3779;49.216;8.650;2023-04-12T18:23:45;1.40;;;1.10;;
7475;SDS011;3779;49.216;8.650;2023-04-12T18:26:31;1.53;;;1.33;;
7475;SDS011;3779;49.216;8.650;2023-04-12T18:29:17;3.00;;;1.30;;
7475;SDS011;3779;49.216;8.650;2023-04-12T18:32:09;1.43;;;1.00;;
7475;SDS011;3779;49.216;8.650;2023-04-12T18:34:58;0.70;;;0.70;;
7475;SDS011;3779;49.216;8.650;2023-04-12T18:37:45;0.90;;;0.80;;
7475;SDS011;3779;49.216;8.650;2023-04-12T18:40:37;1.40;;;0.80;;
7475;SDS011;3779;49.216;8.650;2023-04-12T18:43:23;0.73;;;0.73;;
7475;SDS011;3779;49.216;8.650;2023-04-12T18:46:17;0.90;;;0.90;;
7475;SDS011;3779;49.216;8.650;2023-04-12T18:49:21;0.80;;;0.80;;
7475;SDS011;3779;49.216;8.650;2023-04-12T18:52:07;0.60;;;0.60;;
7475;SDS011;3779;49.216;8.650;2023-04-12T18:54:55;1.07;;;1.00;;
7475;SDS011;3779;49.216;8.650;2023-04-12T18:57:41;0.90;;;0.90;;
7475;SDS011;3779;49.216;8.650;2023-04-12T19:00:27;0.73;;;0.73;;
7475;SDS011;3779;49.216;8.650;2023-04-12T19:03:13;2.00;;;1.80;;
7475;SDS011;3779;49.216;8.650;2023-04-12T19:05:59;1.03;;;1.03;;
7475;SDS011;3779;49.216;8.650;2023-04-12T19:08:48;2.47;;;2.27;;
7475;SDS011;3779;49.216;8.650;2023-04-12T19:11:40;3.07;;;2.63;;
7475;SDS011;3779;49.216;8.650;2023-04-12T19:14:26;2.30;;;2.10;;
7475;SDS011;3779;49.216;8.650;2023-04-12T19:17:43;2.90;;;2.30;;
7475;SDS011;3779;49.216;8.650;2023-04-12T19:20:32;3.63;;;2.70;;
7475;SDS011;3779;49.216;8.650;2023-04-12T19:23:22;3.42;;;3.13;;
7475;SDS011;3779;49.216;8.650;2023-04-12T19:26:31;2.38;;;1.70;;
7475;SDS011;3779;49.216;8.650;2023-04-12T19:29:41;1.50;;;1.40;;
7475;SDS011;3779;49.216;8.650;2023-04-12T19:32:38;1.83;;;1.47;;
7475;SDS011;3779;49.216;8.650;2023-04-12T19:35:25;2.20;;;1.70;;
7475;SDS011;3779;49.216;8.650;2023-04-12T19:38:51;1.10;;;1.10;;
7475;SDS011;3779;49.216;8.650;2023-04-12T19:41:42;1.27;;;1.17;;
7475;SDS011;3779;49.216;8.650;2023-04-12T19:45:14;1.97;;;1.40;;
7475;SDS011;3779;49.216;8.650;2023-04-12T19:48:27;1.47;;;1.37;;
7475;SDS011;3779;49.216;8.650;2023-04-12T19:51:38;1.30;;;1.20;;
7475;SDS011;3779;49.216;8.650;2023-04-12T19:54:24;0.90;;;0.90;;
7475;SDS011;3779;49.216;8.650;2023-04-12T19:57:56;1.30;;;1.20;;
7475;SDS011;3779;49.216;8.650;2023-04-12T20:01:21;0.97;;;0.90;;
7475;SDS011;3779;49.216;8.650;2023-04-12T20:07:20;0.90;;;0.90;;
7475;SDS011;3779;49.216;8.650;2023-04-12T20:10:08;0.77;;;0.77;;
7475;SDS011;3779;49.216;8.650;2023-04-12T20:12:57;0.70;;;0.70;;
7475;SDS011;3779;49.216;8.650;2023-04-12T20:16:03;0.88;;;0.88;;
7475;SDS011;3779;49.216;8.650;2023-04-12T20:18:49;0.83;;;0.83;;
7475;SDS011;3779;49.216;8.650;2023-04-12T20:21:44;0.73;;;0.73;;
7475;SDS011;3779;49.216;8.650;2023-04-12T20:24:33;0.70;;;0.70;;
7475;SDS011;3779;49.216;8.650;2023-04-12T20:27:24;0.90;;;0.90;;
7475;SDS011;3779;49.216;8.650;2023-04-12T20:30:14;0.90;;;0.90;;
7475;SDS011;3779;49.216;8.650;2023-04-12T20:33:29;0.80;;;0.80;;
7475;SDS011;3779;49.216;8.650;2023-04-12T20:36:36;0.70;;;0.70;;
7475;SDS011;3779;49.216;8.650;2023-04-12T20:42:45;0.80;;;0.80;;
7475;SDS011;3779;49.216;8.650;2023-04-12T20:45:43;0.60;;;0.60;;
7475;SDS011;3779;49.216;8.650;2023-04-12T20:48:33;0.98;;;0.70;;
7475;SDS011;3779;49.216;8.650;2023-04-12T20:51:54;0.60;;;0.60;;
7475;SDS011;3779;49.216;8.650;2023-04-12T20:54:45;0.55;;;0.55;;
7475;SDS011;3779;49.216;8.650;2023-04-12T20:57:36;0.60;;;0.60;;
7475;SDS011;3779;49.216;8.650;2023-04-12T21:00:25;0.60;;;0.60;;
7475;SDS011;3779;49.216;8.650;2023-04-12T21:03:24;0.90;;;0.53;;
7475;SDS011;3779;49.216;8.650;2023-04-12T21:06:12;0.60;;;0.60;;
7475;SDS011;3779;49.216;8.650;2023-04-12T21:09:00;0.70;;;0.70;;
7475;SDS011;3779;49.216;8.650;2023-04-12T21:11:51;0.50;;;0.50;;
7475;SDS011;3779;49.216;8.650;2023-04-12T21:14:39;0.67;;;0.67;;
7475;SDS011;3779;49.216;8.650;2023-04-12T21:17:24;0.90;;;0.90;;
7475;SDS011;3779;49.216;8.650;2023-04-12T21:20:11;0.70;;;0.70;;
7475;SDS011;3779;49.216;8.650;2023-04-12T22:02:03;0.60;;;0.60;;
7475;SDS011;3779;49.216;8.650;2023-04-12T22:04:48;0.53;;;0.53;;
7475;SDS011;3779;49.216;8.650;2023-04-12T22:07:35;1.07;;;0.73;;
7475;SDS011;3779;49.216;8.650;2023-04-12T22:10:26;0.90;;;0.90;;
7475;SDS011;3779;49.216;8.650;2023-04-12T22:13:15;0.97;;;0.80;;
7475;SDS011;3779;49.216;8.650;2023-04-12T22:16:04;0.60;;;0.60;;
7475;SDS011;3779;49.216;8.650;2023-04-12T22:18:50;0.80;;;0.70;;
7475;SDS011;3779;49.216;8.650;2023-04-12T22:21:36;0.60;;;0.60;;
7475;SDS011;3779;49.216;8.650;2023-04-12T22:24:25;2.20;;;0.70;;
7475;SDS011;3779;49.216;8.650;2023-04-12T22:27:12;1.63;;;0.70;;
7475;SDS011;3779;49.216;8.650;2023-04-12T22:30:00;0.60;;;0.60;;
7475;SDS011;3779;49.216;8.650;2023-04-12T22:32:47;1.60;;;0.80;;
7475;SDS011;3779;49.216;8.650;2023-04-12T22:35:33;1.03;;;0.67;;
7475;SDS011;3779;49.216;8.650;2023-04-12T22:38:19;0.63;;;0.63;;
7475;SDS011;3779;49.216;8.650;2023-04-12T22:41:05;0.70;;;0.70;;
7475;SDS011;3779;49.216;8.650;2023-04-12T22:43:52;0.50;;;0.50;;
7475;SDS011;3779;49.216;8.650;2023-04-12T22:46:45;0.70;;;0.70;;
